Time;durP1;ratioP1;P1;durP2;ratioP2;P2;SDS_P1;SDS_P2;PMS_P1;PMS_P2;Temp;Humidity;BMP_temperature;BMP_pressure;BME280_temperature;BME280_humidity;BME280_pressure;Samples;Min_cycle;Max_cycle;Signal;HPM_P1;HPM_P2
2022/02/16 00:02:13;;;;;;;4.72;2.88;;;;;;;5.38;72.12;100668.38;5067295;28;20031;-74
2022/02/16 00:04:39;;;;;;;5.20;2.78;;;;;;;5.35;72.14;100656.34;5064487;28;20031;-73
2022/02/16 00:07:05;;;;;;;6.30;3.00;;;;;;;5.39;72.16;100657.53;5068545;28;20100;-73
2022/02/16 00:09:31;;;;;;;4.32;2.58;;;;;;;5.40;71.94;100655.72;5066379;28;20078;-73
2022/02/16 00:11:57;;;;;;;5.72;2.70;;;;;;;5.40;71.96;100653.06;5069789;28;20443;-73
2022/02/16 00:14:23;;;;;;;4.05;2.85;;;;;;;5.40;71.88;100645.06;5067671;28;20140;-73
2022/02/16 00:16:49;;;;;;;3.90;2.72;;;;;;;5.42;71.46;100643.00;5068844;28;20018;-73
2022/02/16 00:19:14;;;;;;;7.55;3.00;;;;;;;5.43;71.44;100647.28;5065685;28;20031;-73
2022/02/16 00:21:39;;;;;;;4.75;2.97;;;;;;;5.39;71.82;100643.44;5065270;28;20390;-73
2022/02/16 00:24:05;;;;;;;5.97;2.90;;;;;;;5.42;71.30;100635.03;5067124;28;20162;-73
2022/02/16 00:26:31;;;;;;;5.00;2.75;;;;;;;5.44;71.52;100628.47;5068036;28;20020;-73
2022/02/16 00:28:56;;;;;;;5.78;3.08;;;;;;;5.47;71.16;100636.00;5068260;28;20024;-73
2022/02/16 00:31:22;;;;;;;3.90;3.15;;;;;;;5.40;71.52;100626.47;5066277;28;20032;-74
2022/02/16 00:33:47;;;;;;;4.55;3.00;;;;;;;5.41;71.39;100626.25;5067278;28;20078;-74
2022/02/16 00:36:13;;;;;;;5.40;2.72;;;;;;;5.40;71.33;100629.94;5068709;28;20032;-74
2022/02/16 00:38:38;;;;;;;5.43;2.65;;;;;;;5.44;71.22;100632.97;5068973;28;20033;-74
2022/02/16 00:41:04;;;;;;;3.90;2.83;;;;;;;5.42;71.33;100627.06;5068397;28;20111;-73
2022/02/16 00:43:29;;;;;;;6.75;2.90;;;;;;;5.43;70.91;100621.53;5064426;28;20059;-73
2022/02/16 00:45:55;;;;;;;4.45;2.78;;;;;;;5.44;70.91;100622.34;5068503;28;20032;-73
2022/02/16 00:48:20;;;;;;;6.70;2.95;;;;;;;5.49;70.78;100635.78;5065706;28;20024;-73
2022/02/16 00:50:45;;;;;;;7.15;2.50;;;;;;;5.48;70.89;100631.50;5069035;28;20058;-73
2022/02/16 00:53:11;;;;;;;4.43;2.42;;;;;;;5.47;70.90;100624.56;5067361;28;20063;-73
2022/02/16 00:55:36;;;;;;;3.83;2.60;;;;;;;5.54;70.40;100625.31;5068559;28;20461;-73
2022/02/16 00:58:05;;;;;;;5.55;2.72;;;;;;;5.53;70.61;100621.03;5068595;28;21896;-74
2022/02/16 01:00:31;;;;;;;4.03;2.55;;;;;;;5.57;70.29;100619.59;5065182;28;20020;-74
2022/02/16 01:02:57;;;;;;;4.88;2.55;;;;;;;5.60;70.10;100621.81;5067168;28;20032;-74
2022/02/16 01:05:22;;;;;;;4.88;2.20;;;;;;;5.61;70.33;100619.97;5068031;28;20039;-74
2022/02/16 01:07:48;;;;;;;5.13;2.33;;;;;;;5.62;70.01;100610.94;5066279;28;20024;-74
2022/02/16 01:10:13;;;;;;;6.72;2.58;;;;;;;5.63;70.16;100612.56;5067820;28;20029;-73
2022/02/16 01:12:39;;;;;;;3.63;2.30;;;;;;;5.62;69.86;100606.44;5064896;28;20108;-73
2022/02/16 01:15:05;;;;;;;3.05;1.90;;;;;;;5.64;69.78;100599.06;5065059;28;20078;-74
2022/02/16 01:17:30;;;;;;;4.60;2.30;;;;;;;5.63;69.85;100597.44;5079205;28;20020;-74
2022/02/16 01:19:56;;;;;;;3.58;2.00;;;;;;;5.67;69.73;100595.97;5068502;28;20097;-74
2022/02/16 01:22:21;;;;;;;2.97;1.90;;;;;;;5.67;69.97;100593.31;5067114;28;20035;-73
2022/02/16 01:24:46;;;;;;;3.67;2.10;;;;;;;5.70;69.88;100592.03;5069359;28;20028;-73
2022/02/16 01:27:12;;;;;;;2.75;2.05;;;;;;;5.62;70.68;100574.56;5081277;28;20024;-73
2022/02/16 01:29:37;;;;;;;2.78;1.83;;;;;;;5.60;71.10;100566.00;5068671;28;20031;-73
2022/02/16 01:32:03;;;;;;;4.82;1.90;;;;;;;5.56;71.58;100562.13;5066193;28;20032;-73
2022/02/16 01:34:29;;;;;;;6.40;1.98;;;;;;;5.55;71.15;100549.88;5069081;28;20107;-73
2022/02/16 01:36:54;;;;;;;4.57;2.30;;;;;;;5.54;71.54;100555.41;5065495;28;20515;-73
2022/02/16 01:39:20;;;;;;;3.70;1.98;;;;;;;5.52;71.65;100550.31;5067249;28;20024;-71
2022/02/16 01:41:45;;;;;;;3.45;2.20;;;;;;;5.52;71.81;100555.63;5068218;28;20421;-71
2022/02/16 01:44:11;;;;;;;2.85;1.90;;;;;;;5.54;72.15;100556.22;5066766;28;20028;-71
2022/02/16 01:46:51;;;;;;;3.85;2.42;;;;;;;5.50;72.01;100552.38;5062728;28;20058;-72
2022/02/16 01:49:16;;;;;;;3.47;2.20;;;;;;;5.55;71.74;100549.06;5080450;28;20127;-71
2022/02/16 01:51:42;;;;;;;6.45;2.08;;;;;;;5.54;72.31;100534.97;5068216;28;20592;-71
2022/02/16 01:54:09;;;;;;;4.68;2.05;;;;;;;5.52;71.99;100539.69;5064975;28;20032;-71
2022/02/16 01:56:35;;;;;;;3.05;2.08;;;;;;;5.53;72.61;100529.88;5066232;28;20509;-71
2022/02/16 01:59:01;;;;;;;7.72;2.05;;;;;;;5.50;72.74;100525.00;5065913;28;20047;-71
2022/02/16 02:01:26;;;;;;;4.45;2.10;;;;;;;5.48;72.57;100525.22;5066820;28;20385;-72
2022/02/16 02:03:52;;;;;;;4.40;2.25;;;;;;;5.48;72.83;100519.91;5078701;28;20024;-72
2022/02/16 02:06:17;;;;;;;2.90;2.03;;;;;;;5.45;73.34;100515.03;5066239;28;20032;-72
2022/02/16 02:08:43;;;;;;;4.93;1.75;;;;;;;5.44;73.26;100510.75;5062715;28;20464;-71
2022/02/16 02:11:08;;;;;;;4.90;2.30;;;;;;;5.43;73.42;100504.63;5061988;28;20036;-71
2022/02/16 02:13:34;;;;;;;6.25;2.25;;;;;;;5.42;73.74;100497.69;5063725;28;20056;-71
2022/02/16 02:15:59;;;;;;;6.03;2.55;;;;;;;5.42;73.61;100488.91;5065904;28;20048;-71
2022/02/16 02:18:25;;;;;;;5.05;2.13;;;;;;;5.38;74.46;100493.81;5078778;28;20155;-71
2022/02/16 02:20:50;;;;;;;5.85;1.92;;;;;;;5.40;73.94;100494.44;5067451;28;20028;-71
2022/02/16 02:23:16;;;;;;;4.32;2.42;;;;;;;5.38;74.76;100482.38;5063674;28;20770;-72
2022/02/16 02:25:52;;;;;;;5.57;2.05;;;;;;;5.38;74.64;100487.69;5065931;28;20028;-71
2022/02/16 02:28:22;;;;;;;3.80;2.30;;;;;;;5.36;74.86;100479.13;5064002;28;20024;-71
2022/02/16 02:30:48;;;;;;;2.97;1.80;;;;;;;5.35;75.41;100469.53;5067138;28;20029;-72
2022/02/16 02:33:15;;;;;;;3.88;2.10;;;;;;;5.35;74.73;100474.84;5065405;28;20037;-71
2022/02/16 02:35:41;;;;;;;3.45;2.05;;;;;;;5.33;75.31;100453.84;5065756;28;20078;-71
2022/02/16 02:38:07;;;;;;;3.35;2.17;;;;;;;5.31;75.14;100469.19;5066575;28;20405;-71
2022/02/16 02:40:33;;;;;;;4.78;1.90;;;;;;;5.33;75.05;100468.97;5064406;28;20021;-72
2022/02/16 02:42:59;;;;;;;3.33;2.15;;;;;;;5.34;75.67;100467.94;5063340;28;20032;-72
2022/02/16 02:45:25;;;;;;;4.15;2.47;;;;;;;5.31;76.17;100447.94;5063184;28;20556;-72
2022/02/16 02:47:50;;;;;;;7.53;2.58;;;;;;;5.30;75.89;100442.84;5065409;28;20074;-71
2022/02/16 02:50:16;;;;;;;4.63;2.47;;;;;;;5.29;75.98;100451.84;5065103;28;20792;-71
2022/02/16 02:52:42;;;;;;;5.20;2.50;;;;;;;5.30;75.97;100434.88;5063599;28;20035;-72
2022/02/16 02:55:10;;;;;;;4.93;2.30;;;;;;;5.31;76.13;100436.50;5065586;28;20103;-71
2022/02/16 02:57:36;;;;;;;4.25;2.28;;;;;;;5.30;76.35;100429.56;5064276;28;20052;-72
2022/02/16 03:00:03;;;;;;;6.18;2.40;;;;;;;5.29;76.46;100422.63;5064823;28;20032;-72
2022/02/16 03:02:29;;;;;;;5.15;2.75;;;;;;;5.30;76.44;100426.91;5062668;28;20393;-72
2022/02/16 03:04:54;;;;;;;3.83;2.50;;;;;;;5.29;76.63;100419.97;5063317;28;20032;-72
2022/02/16 03:07:20;;;;;;;3.53;2.38;;;;;;;5.29;76.56;100423.44;5065010;28;20073;-71
2022/02/16 03:09:45;;;;;;;4.65;2.38;;;;;;;5.32;76.46;100415.00;5065336;28;20038;-72
2022/02/16 03:12:10;;;;;;;7.63;2.28;;;;;;;5.31;76.66;100412.59;5065659;28;20036;-71
2022/02/16 03:14:36;;;;;;;2.90;2.13;;;;;;;5.29;76.85;100409.34;5065441;28;20030;-71
2022/02/16 03:17:02;;;;;;;3.05;2.28;;;;;;;5.31;76.88;100407.28;5064297;28;20136;-72
2022/02/16 03:19:28;;;;;;;4.20;2.50;;;;;;;5.30;77.05;100406.47;5064147;28;20036;-72
2022/02/16 03:21:54;;;;;;;4.47;2.50;;;;;;;5.32;76.98;100404.38;5063983;28;20054;-71
2022/02/16 03:24:19;;;;;;;3.40;2.40;;;;;;;5.33;77.01;100405.19;5064870;28;20559;-71
2022/02/16 03:26:45;;;;;;;4.75;2.20;;;;;;;5.31;77.60;100407.28;5062185;28;20032;-72
2022/02/16 03:29:10;;;;;;;6.38;2.80;;;;;;;5.32;77.31;100395.59;5062329;28;20021;-71
2022/02/16 03:31:36;;;;;;;5.65;2.63;;;;;;;5.31;77.54;100397.47;5064608;28;20025;-72
2022/02/16 03:34:02;;;;;;;6.20;2.47;;;;;;;5.32;77.51;100393.75;5061739;28;20035;-71
2022/02/16 03:36:27;;;;;;;5.97;2.30;;;;;;;5.31;77.57;100383.38;5066660;28;20021;-72
2022/02/16 03:38:53;;;;;;;4.55;2.80;;;;;;;5.34;77.83;100389.03;5068804;28;20490;-72
2022/02/16 03:41:19;;;;;;;5.93;3.47;;;;;;;5.33;77.52;100381.28;5069749;28;20389;-72
2022/02/16 03:43:45;;;;;;;3.92;2.67;;;;;;;5.34;77.57;100386.38;5069755;28;20441;-72
2022/02/16 03:46:10;;;;;;;6.22;2.72;;;;;;;5.36;77.70;100383.50;5066762;28;20024;-71
2022/02/16 03:48:36;;;;;;;5.65;2.67;;;;;;;5.34;77.84;100378.41;5063243;28;20028;-71
2022/02/16 03:51:01;;;;;;;4.43;2.67;;;;;;;5.36;77.91;100372.88;5065616;28;20028;-71
2022/02/16 03:53:27;;;;;;;3.97;2.50;;;;;;;5.35;78.03;100372.06;5068330;28;20035;-72
2022/02/16 03:55:52;;;;;;;4.00;2.58;;;;;;;5.35;77.68;100368.59;5071569;28;20050;-72
2022/02/16 03:58:17;;;;;;;4.07;2.95;;;;;;;5.37;77.90;100371.84;5065906;28;20074;-72
2022/02/16 04:00:43;;;;;;;5.85;2.72;;;;;;;5.40;77.78;100363.44;5068783;28;20048;-72
2022/02/16 04:03:09;;;;;;;5.38;2.90;;;;;;;5.40;77.95;100366.91;5066249;28;20089;-72
2022/02/16 04:05:39;;;;;;;5.20;3.50;;;;;;;5.40;77.78;100364.25;5081205;28;20478;-71
2022/02/16 04:08:05;;;;;;;5.20;3.10;;;;;;;5.42;77.56;100361.38;5068082;28;20036;-71
2022/02/16 04:10:30;;;;;;;5.50;2.92;;;;;;;5.43;77.82;100366.47;5085303;28;20405;-72
2022/02/16 04:12:56;;;;;;;4.10;2.70;;;;;;;5.45;77.38;100358.25;5067282;28;20033;-71
2022/02/16 04:15:21;;;;;;;7.70;3.65;;;;;;;5.49;77.25;100363.94;5068428;28;20032;-71
2022/02/16 04:17:47;;;;;;;3.40;2.60;;;;;;;5.50;77.58;100362.91;5069978;28;20028;-71
2022/02/16 04:20:12;;;;;;;4.70;2.92;;;;;;;5.50;77.50;100355.75;5067411;28;20046;-72
2022/02/16 04:22:46;;;;;;;5.00;2.75;;;;;;;5.51;77.14;100364.53;5064301;28;20032;-71
2022/02/16 04:25:13;;;;;;;6.32;2.97;;;;;;;5.55;77.45;100360.38;5083417;28;20029;-71
2022/02/16 04:27:39;;;;;;;5.93;2.88;;;;;;;5.55;77.00;100355.06;5067470;28;20086;-72
2022/02/16 04:30:06;;;;;;;5.45;2.40;;;;;;;5.54;77.51;100356.91;5068225;28;20036;-71
2022/02/16 04:32:32;;;;;;;4.25;2.60;;;;;;;5.54;77.29;100358.75;5067103;28;20474;-73
2022/02/16 04:34:57;;;;;;;6.65;3.03;;;;;;;5.56;77.09;100359.34;5067805;28;20040;-72
2022/02/16 04:37:23;;;;;;;3.50;2.55;;;;;;;5.56;77.30;100354.84;5068054;28;20109;-73
2022/02/16 04:39:49;;;;;;;4.57;2.60;;;;;;;5.55;77.56;100349.75;5083425;28;20035;-73
2022/02/16 04:42:15;;;;;;;6.90;2.55;;;;;;;5.56;76.97;100344.19;5061859;28;20024;-72
2022/02/16 04:44:40;;;;;;;3.20;2.50;;;;;;;5.57;77.25;100343.19;5066847;28;20113;-73
2022/02/16 04:47:06;;;;;;;5.90;3.15;;;;;;;5.60;77.03;100348.06;5065866;28;20074;-73
2022/02/16 04:49:31;;;;;;;4.57;2.72;;;;;;;5.58;76.78;100347.47;5066499;28;20107;-73
2022/02/16 04:51:57;;;;;;;4.85;2.20;;;;;;;5.59;76.79;100343.78;5068669;28;20040;-73
2022/02/16 04:54:23;;;;;;;6.03;2.55;;;;;;;5.60;77.24;100337.44;5065595;28;20024;-73
2022/02/16 04:56:49;;;;;;;5.88;2.72;;;;;;;5.60;77.33;100339.28;5066063;28;20036;-73
2022/02/16 04:59:15;;;;;;;4.72;2.65;;;;;;;5.62;76.99;100334.53;5067317;28;20415;-72
2022/02/16 05:01:42;;;;;;;6.45;2.95;;;;;;;5.62;76.86;100338.00;5066848;28;20063;-73
2022/02/16 05:04:07;;;;;;;4.10;2.45;;;;;;;5.64;76.67;100332.47;5067459;28;20089;-73
2022/02/16 05:06:34;;;;;;;5.03;2.50;;;;;;;5.65;76.83;100328.78;5068244;28;20111;-73
2022/02/16 05:09:00;;;;;;;7.95;2.80;;;;;;;5.66;76.79;100320.56;5066862;28;20039;-73
2022/02/16 05:11:25;;;;;;;3.30;2.63;;;;;;;5.67;76.61;100327.50;5064501;28;20032;-73
2022/02/16 05:13:51;;;;;;;4.15;2.60;;;;;;;5.68;76.82;100321.16;5061343;28;20032;-72
2022/02/16 05:16:17;;;;;;;4.40;2.53;;;;;;;5.70;76.72;100320.91;5062496;28;20847;-73
2022/02/16 05:18:42;;;;;;;6.47;3.40;;;;;;;5.70;76.78;100320.91;5083852;28;20071;-73
2022/02/16 05:21:08;;;;;;;5.57;2.95;;;;;;;5.71;76.74;100315.38;5062865;28;20032;-73
2022/02/16 05:23:33;;;;;;;8.52;2.70;;;;;;;5.73;76.75;100313.28;5065562;28;20016;-73
2022/02/16 05:25:59;;;;;;;4.47;2.72;;;;;;;5.72;76.60;100309.03;5065178;28;20048;-73
2022/02/16 05:28:24;;;;;;;5.15;3.28;;;;;;;5.76;76.05;100310.22;5064979;28;20478;-73
2022/02/16 05:30:50;;;;;;;5.63;2.45;;;;;;;5.77;76.46;100308.38;5065300;28;20032;-73
2022/02/16 05:33:15;;;;;;;4.93;2.92;;;;;;;5.80;76.09;100315.06;5067332;28;20119;-73
2022/02/16 05:35:41;;;;;;;6.93;2.90;;;;;;;5.81;76.11;100311.38;5063104;28;20028;-73
2022/02/16 05:38:06;;;;;;;3.00;2.25;;;;;;;5.81;76.09;100320.16;5064184;28;20241;-73
2022/02/16 05:40:32;;;;;;;5.85;2.53;;;;;;;5.83;76.18;100304.78;5065652;28;20054;-72
2022/02/16 05:42:58;;;;;;;3.63;2.42;;;;;;;5.83;76.01;100309.28;5061433;28;20032;-72
2022/02/16 05:45:25;;;;;;;4.68;2.50;;;;;;;5.83;76.49;100301.31;5066332;28;20024;-72
2022/02/16 05:47:51;;;;;;;5.38;2.90;;;;;;;5.83;76.00;100309.28;5065993;28;20655;-72
2022/02/16 05:50:16;;;;;;;4.88;2.42;;;;;;;5.85;76.08;100301.91;5065625;28;20046;-72
2022/02/16 05:52:42;;;;;;;6.03;2.38;;;;;;;5.84;76.41;100295.78;5066954;28;20043;-73
2022/02/16 05:55:08;;;;;;;3.85;2.40;;;;;;;5.87;75.93;100294.50;5066592;28;20386;-72
2022/02/16 05:57:35;;;;;;;2.50;2.30;;;;;;;5.87;75.84;100300.63;5065703;28;20024;-72
2022/02/16 06:00:01;;;;;;;4.15;2.22;;;;;;;5.91;76.03;100304.47;5065463;28;20592;-72
2022/02/16 06:02:26;;;;;;;3.40;2.42;;;;;;;5.91;76.01;100306.31;5067859;28;20123;-72
2022/02/16 06:04:52;;;;;;;4.28;2.33;;;;;;;5.92;75.68;100298.13;5065243;28;20090;-72
2022/02/16 06:07:17;;;;;;;5.45;2.42;;;;;;;5.94;75.93;100292.59;5062737;28;20024;-72
2022/02/16 06:09:42;;;;;;;4.63;2.35;;;;;;;5.94;75.91;100284.63;5065101;28;20031;-73
2022/02/16 06:12:08;;;;;;;4.13;2.55;;;;;;;5.95;75.67;100283.59;5068119;28;20020;-72
2022/02/16 06:14:34;;;;;;;3.42;2.33;;;;;;;5.95;75.87;100286.25;5067418;28;20112;-72
2022/02/16 06:16:59;;;;;;;5.32;2.30;;;;;;;5.97;75.85;100286.81;5068966;28;20099;-72
2022/02/16 06:19:25;;;;;;;4.13;2.60;;;;;;;5.97;75.56;100278.84;5066710;28;20024;-72
2022/02/16 06:21:50;;;;;;;7.32;2.75;;;;;;;5.98;75.62;100272.47;5069448;28;20024;-73
2022/02/16 06:24:16;;;;;;;4.43;2.38;;;;;;;5.99;75.49;100268.78;5069611;28;20032;-72
2022/02/16 06:26:42;;;;;;;4.47;2.60;;;;;;;6.01;75.81;100272.03;5079315;28;20118;-73
2022/02/16 06:29:08;;;;;;;3.95;2.63;;;;;;;6.00;75.56;100260.56;5066663;28;20028;-72
2022/02/16 06:31:34;;;;;;;3.92;2.45;;;;;;;5.98;75.52;100253.88;5067357;28;20020;-72
2022/02/16 06:33:59;;;;;;;3.67;2.53;;;;;;;6.00;75.88;100243.81;5063533;28;20017;-72
2022/02/16 06:36:25;;;;;;;3.78;2.55;;;;;;;6.01;75.66;100253.41;5067065;28;20027;-72
2022/02/16 06:38:50;;;;;;;4.85;2.33;;;;;;;6.01;75.59;100237.44;5065770;28;20036;-72
2022/02/16 06:41:17;;;;;;;3.83;2.35;;;;;;;6.02;75.57;100247.84;5066870;28;20081;-72
2022/02/16 06:43:42;;;;;;;6.43;2.58;;;;;;;6.01;75.88;100227.63;5066111;28;20032;-72
2022/02/16 06:46:08;;;;;;;4.18;2.78;;;;;;;6.00;75.71;100233.97;5066826;28;20060;-72
2022/02/16 06:48:33;;;;;;;3.83;2.80;;;;;;;6.01;75.94;100224.16;5064300;28;20044;-72
2022/02/16 06:50:59;;;;;;;14.18;4.55;;;;;;;6.02;75.98;100220.44;5065602;28;20070;-72
2022/02/16 06:53:24;;;;;;;3.08;2.40;;;;;;;6.02;75.80;100215.94;5066840;28;20032;-73
2022/02/16 06:55:51;;;;;;;5.85;2.55;;;;;;;6.03;75.85;100214.09;5067008;28;20063;-72
2022/02/16 06:58:16;;;;;;;2.75;2.40;;;;;;;6.02;75.89;100210.63;5065714;28;20401;-73
2022/02/16 07:00:42;;;;;;;5.03;2.80;;;;;;;6.06;76.15;100206.44;5067582;28;20054;-73
2022/02/16 07:03:07;;;;;;;6.40;2.95;;;;;;;6.05;76.22;100207.50;5065522;28;20028;-72
2022/02/16 07:05:33;;;;;;;3.88;2.55;;;;;;;6.07;75.97;100209.91;5065075;28;20117;-72
2022/02/16 07:07:58;;;;;;;4.95;2.55;;;;;;;6.07;76.24;100200.09;5066926;28;20079;-72
2022/02/16 07:10:25;;;;;;;5.65;2.80;;;;;;;6.08;75.98;100208.88;5065695;28;20028;-72
2022/02/16 07:12:51;;;;;;;6.97;2.83;;;;;;;6.11;75.95;100208.44;5066418;28;20107;-72
2022/02/16 07:15:17;;;;;;;6.05;2.55;;;;;;;6.12;76.30;100201.28;5065789;28;20163;-72
2022/02/16 07:17:43;;;;;;;4.63;3.05;;;;;;;6.13;76.02;100195.72;5066268;28;20024;-72
2022/02/16 07:20:11;;;;;;;4.28;3.00;;;;;;;6.14;76.18;100188.53;5060538;28;20169;-72
2022/02/16 07:22:44;;;;;;;3.90;3.03;;;;;;;6.12;75.94;100177.34;5066379;28;20060;-72
2022/02/16 07:25:11;;;;;;;4.25;2.83;;;;;;;6.14;76.27;100178.72;5065628;28;20398;-72
2022/02/16 07:27:36;;;;;;;4.32;2.75;;;;;;;6.12;76.40;100166.69;5066451;28;20035;-72
2022/02/16 07:30:08;;;;;;;3.88;2.95;;;;;;;6.11;76.70;100154.44;5066330;28;20111;-72
2022/02/16 07:32:37;;;;;;;3.80;2.80;;;;;;;6.11;76.82;100157.09;5082899;28;20028;-72
2022/02/16 07:35:03;;;;;;;3.78;2.70;;;;;;;6.09;77.27;100159.97;5065436;28;20029;-74
2022/02/16 07:37:28;;;;;;;3.42;2.70;;;;;;;6.10;77.02;100156.25;5065007;28;20021;-73
2022/02/16 07:39:54;;;;;;;4.57;2.90;;;;;;;6.09;77.32;100159.97;5065093;28;20417;-72
2022/02/16 07:42:20;;;;;;;4.97;2.53;;;;;;;6.09;77.37;100151.97;5066323;28;20024;-72
2022/02/16 07:44:45;;;;;;;4.50;2.67;;;;;;;6.11;77.19;100155.25;5064587;28;20380;-72
2022/02/16 07:47:11;;;;;;;4.57;2.60;;;;;;;6.11;77.26;100152.59;5081407;28;20028;-73
2022/02/16 07:49:37;;;;;;;5.40;2.70;;;;;;;6.12;77.31;100143.56;5065081;28;20028;-73
2022/02/16 07:52:04;;;;;;;3.42;2.45;;;;;;;6.13;77.55;100139.88;5066729;28;20049;-72
2022/02/16 07:54:30;;;;;;;2.95;2.35;;;;;;;6.12;77.97;100138.25;5065669;28;20032;-72
2022/02/16 07:56:56;;;;;;;4.03;2.50;;;;;;;6.14;77.72;100122.06;5066112;28;20033;-72
2022/02/16 07:59:21;;;;;;;3.47;2.50;;;;;;;6.12;78.05;100119.63;5064333;28;20040;-72
2022/02/16 08:01:47;;;;;;;4.13;2.10;;;;;;;6.12;78.32;100116.16;5067233;28;20025;-72
2022/02/16 08:04:15;;;;;;;4.18;2.30;;;;;;;6.11;78.40;100109.22;5065637;28;20016;-72
2022/02/16 08:06:45;;;;;;;3.45;2.42;;;;;;;6.12;78.27;100105.53;5070787;28;20021;-72
2022/02/16 08:09:12;;;;;;;4.07;2.17;;;;;;;6.09;78.73;100101.44;5066099;28;20035;-73
2022/02/16 08:11:42;;;;;;;5.10;2.95;;;;;;;6.15;78.45;100091.75;5067282;28;20478;-72
2022/02/16 08:14:08;;;;;;;3.60;2.20;;;;;;;6.15;78.45;100081.91;5064053;28;20093;-72
2022/02/16 08:16:35;;;;;;;6.32;2.30;;;;;;;6.16;78.50;100075.56;5062616;28;20016;-72
2022/02/16 08:19:03;;;;;;;2.45;2.00;;;;;;;6.16;79.20;100075.56;5064454;28;20614;-72
2022/02/16 08:21:28;;;;;;;3.55;2.00;;;;;;;6.18;79.39;100083.28;5066741;28;20071;-72
2022/02/16 08:23:54;;;;;;;3.13;2.17;;;;;;;6.20;78.55;100074.03;5070212;28;20020;-72
2022/02/16 08:26:19;;;;;;;3.75;2.22;;;;;;;6.20;78.70;100066.06;5069609;28;20020;-72
2022/02/16 08:28:45;;;;;;;2.83;1.92;;;;;;;6.19;78.98;100063.63;5068868;28;20016;-72
2022/02/16 08:31:11;;;;;;;5.90;2.30;;;;;;;6.17;79.92;100061.22;5069087;28;20036;-72
2022/02/16 08:33:37;;;;;;;2.83;2.47;;;;;;;6.18;79.51;100048.72;5068795;28;20032;-73
2022/02/16 08:36:03;;;;;;;5.10;2.70;;;;;;;6.17;80.04;100042.59;5065690;28;20028;-72
2022/02/16 08:38:28;;;;;;;3.97;2.22;;;;;;;6.12;80.69;100036.38;5069930;28;20025;-72
2022/02/16 08:40:54;;;;;;;2.58;2.08;;;;;;;6.13;80.70;100033.47;5069107;28;20482;-73
2022/02/16 08:43:19;;;;;;;4.45;2.35;;;;;;;6.15;80.79;100019.94;5069477;28;20496;-72
2022/02/16 08:45:45;;;;;;;4.63;2.40;;;;;;;6.10;81.15;100022.47;5068383;28;20016;-72
2022/02/16 08:48:11;;;;;;;4.60;2.25;;;;;;;6.18;80.53;100022.91;5064590;28;20047;-72
2022/02/16 08:50:37;;;;;;;4.38;2.03;;;;;;;6.16;81.21;100027.66;5067798;28;20082;-72
2022/02/16 08:53:03;;;;;;;3.05;2.25;;;;;;;6.19;80.40;100013.91;5067784;28;20498;-72
2022/02/16 08:55:29;;;;;;;3.90;2.20;;;;;;;6.22;80.71;99996.66;5067944;28;20028;-72
2022/02/16 08:57:54;;;;;;;2.50;1.90;;;;;;;6.20;81.41;99986.25;5067493;28;20028;-72
2022/02/16 09:00:20;;;;;;;4.57;3.08;;;;;;;6.23;80.99;99969.00;5068732;28;20092;-72
2022/02/16 09:02:46;;;;;;;1.73;1.60;;;;;;;6.23;81.17;99963.69;5063962;28;20438;-72
2022/02/16 09:05:11;;;;;;;2.15;1.60;;;;;;;6.23;81.90;99956.50;5068965;28;20028;-72
2022/02/16 09:07:37;;;;;;;4.28;2.05;;;;;;;6.24;81.38;99947.47;5068031;28;20039;-72
2022/02/16 09:10:06;;;;;;;2.30;1.75;;;;;;;6.27;81.56;99944.34;5068509;28;20028;-72
2022/02/16 09:12:32;;;;;;;2.67;1.58;;;;;;;6.30;81.74;99935.91;5083320;28;20036;-72
2022/02/16 09:14:58;;;;;;;2.90;1.80;;;;;;;6.28;81.57;99940.66;5068023;28;20032;-72
2022/02/16 09:17:25;;;;;;;2.65;1.92;;;;;;;6.28;81.71;99945.97;5065186;28;20025;-72
2022/02/16 09:19:52;;;;;;;2.22;1.85;;;;;;;6.27;81.71;99927.56;5066329;28;20131;-72
2022/02/16 09:22:18;;;;;;;1.80;1.60;;;;;;;6.31;81.03;99921.56;5067622;28;20043;-72
2022/02/16 09:24:44;;;;;;;3.67;2.00;;;;;;;6.29;81.37;99918.31;5066284;28;20020;-72
2022/02/16 09:27:10;;;;;;;2.70;1.50;;;;;;;6.33;81.27;99911.47;5067665;28;20388;-73
2022/02/16 09:29:35;;;;;;;3.45;2.22;;;;;;;6.39;81.31;99924.84;5066665;28;20025;-72
2022/02/16 09:32:01;;;;;;;2.40;1.83;;;;;;;6.38;81.26;99915.25;5069350;28;20490;-73
2022/02/16 09:34:27;;;;;;;2.47;1.30;;;;;;;6.40;80.85;99906.00;5068513;28;20037;-73
2022/02/16 09:36:53;;;;;;;2.03;1.30;;;;;;;6.41;80.84;99894.28;5067365;28;20418;-73
2022/02/16 09:39:18;;;;;;;1.50;1.20;;;;;;;6.42;81.27;99892.44;5066420;28;20047;-72
2022/02/16 09:41:44;;;;;;;2.13;1.67;;;;;;;6.45;80.73;99886.63;5072369;28;20028;-72
2022/02/16 09:44:14;;;;;;;1.13;1.02;;;;;;;6.47;80.44;99879.25;5066283;28;20048;-73
2022/02/16 09:46:41;;;;;;;1.77;1.38;;;;;;;6.45;80.50;99878.66;5068851;28;20020;-72
2022/02/16 09:49:09;;;;;;;1.88;1.50;;;;;;;6.51;80.18;99881.16;5067273;28;20036;-73
2022/02/16 09:51:34;;;;;;;1.65;1.55;;;;;;;6.55;80.10;99873.50;5063701;28;20460;-73
2022/02/16 09:54:00;;;;;;;2.05;1.50;;;;;;;6.57;79.61;99874.88;5066653;28;20020;-72
2022/02/16 09:56:26;;;;;;;2.25;1.38;;;;;;;6.58;79.97;99865.81;5067532;28;20078;-72
2022/02/16 09:58:51;;;;;;;1.88;1.30;;;;;;;6.59;79.67;99869.28;5064937;28;20050;-72
2022/02/16 10:01:17;;;;;;;2.17;1.30;;;;;;;6.63;79.65;99865.09;5068928;28;20462;-72
2022/02/16 10:04:09;;;;;;;1.30;1.20;;;;;;;6.57;79.56;99858.91;5070428;28;20490;-72
2022/02/16 10:06:38;;;;;;;1.33;1.20;;;;;;;6.62;79.04;99852.84;5064557;28;20017;-72
2022/02/16 10:09:05;;;;;;;2.17;1.20;;;;;;;6.61;79.70;99851.22;5066241;28;20420;-72
2022/02/16 10:11:31;;;;;;;2.67;1.30;;;;;;;6.64;79.48;99845.41;5066889;28;20026;-72
2022/02/16 10:14:16;;;;;;;1.20;1.00;;;;;;;6.61;79.33;99840.56;5066153;28;20028;-72
2022/02/16 10:16:42;;;;;;;;;;;;;;;6.58;80.06;99833.09;5067336;28;20025;-72
2022/02/16 10:19:07;;;;;;;0.95;0.90;;;;;;;6.61;80.39;99822.75;5066884;28;20068;-72
2022/02/16 10:21:33;;;;;;;2.13;1.15;;;;;;;6.65;79.67;99820.44;5068729;28;20024;-72
2022/02/16 10:23:58;;;;;;;1.08;0.98;;;;;;;6.65;80.29;99807.94;5065012;28;20031;-72
2022/02/16 10:26:53;;;;;;;1.30;0.90;;;;;;;6.60;80.11;99807.03;5066642;28;20560;-72
2022/02/16 10:29:21;;;;;;;2.23;1.30;;;;;;;6.65;80.07;99791.16;5064272;28;20088;-72
2022/02/16 10:31:47;;;;;;;1.13;1.00;;;;;;;6.66;80.21;99787.44;5067313;28;20028;-72
2022/02/16 10:34:13;;;;;;;1.20;1.10;;;;;;;6.69;80.12;99775.50;5064885;28;20093;-72
2022/02/16 10:36:38;;;;;;;2.28;1.02;;;;;;;6.67;80.80;99778.41;5071668;28;20484;-72
2022/02/16 10:39:11;;;;;;;2.15;1.10;;;;;;;6.71;80.39;99768.06;5066693;28;21284;-72
2022/02/16 10:41:53;;;;;;;1.05;1.00;;;;;;;6.71;80.23;99758.22;5068328;28;20048;-72
2022/02/16 10:44:31;;;;;;;1.77;1.25;;;;;;;6.73;80.32;99749.97;5066164;28;20111;-73
2022/02/16 10:47:11;;;;;;;1.20;1.10;;;;;;;6.68;80.88;99734.75;5064981;28;20032;-73
2022/02/16 10:49:39;;;;;;;1.67;1.00;;;;;;;6.72;81.21;99727.88;5061264;28;20024;-72
2022/02/16 10:52:10;;;;;;;2.28;1.13;;;;;;;6.71;81.06;99717.47;5069626;28;20024;-72
2022/02/16 10:54:36;;;;;;;1.02;0.93;;;;;;;6.74;81.54;99725.78;5063088;28;20048;-72
2022/02/16 10:57:03;;;;;;;1.27;0.98;;;;;;;6.75;81.23;99710.59;5066286;28;20028;-72
2022/02/16 10:59:29;;;;;;;1.08;0.98;;;;;;;6.76;81.55;99704.22;5068395;28;20031;-72
2022/02/16 11:01:56;;;;;;;1.35;0.98;;;;;;;6.75;81.37;99703.41;5066194;28;20378;-72
2022/02/16 11:04:26;;;;;;;1.00;0.90;;;;;;;6.76;81.85;99690.91;5065081;28;20111;-72
2022/02/16 11:06:52;;;;;;;1.20;1.00;;;;;;;6.76;81.83;99683.72;5071864;28;20410;-72
2022/02/16 11:09:20;;;;;;;1.13;1.00;;;;;;;6.77;82.13;99661.38;5074805;28;20032;-72
2022/02/16 11:11:47;;;;;;;1.20;1.10;;;;;;;6.75;82.32;99646.72;5077193;28;20367;-72
2022/02/16 11:14:13;;;;;;;2.53;1.20;;;;;;;6.71;83.09;99638.44;5066838;28;20020;-72
2022/02/16 11:16:41;;;;;;;2.65;1.30;;;;;;;6.73;82.61;99632.84;5067081;28;20649;-72
2022/02/16 11:19:27;;;;;;;2.08;1.30;;;;;;;6.74;83.11;99632.59;5065812;28;20054;-72
2022/02/16 11:22:01;;;;;;;2.50;1.27;;;;;;;6.75;83.25;99623.56;5065130;28;20081;-72
2022/02/16 11:24:34;;;;;;;1.50;1.00;;;;;;;6.79;82.90;99622.00;5063347;28;20393;-72
2022/02/16 11:27:38;;;;;;;2.28;1.15;;;;;;;6.77;83.37;99607.34;5064273;28;20025;-72
2022/02/16 11:30:21;;;;;;;0.80;0.80;;;;;;;6.79;83.22;99605.22;5066706;28;20115;-72
2022/02/16 11:32:47;;;;;;;1.40;1.10;;;;;;;6.81;83.55;99592.47;5061321;28;20165;-73
2022/02/16 11:35:24;;;;;;;1.23;1.13;;;;;;;6.82;82.98;99588.75;5066185;28;20058;-72